Time;durP1;ratioP1;P1;durP2;ratioP2;P2;SDS_P1;SDS_P2;PMS_P1;PMS_P2;Temp;Humidity;BMP_temperature;BMP_pressure;BME280_temperature;BME280_humidity;BME280_pressure;Samples;Min_cycle;Max_cycle;Signal;HPM_P1;HPM_P2
2022/01/08 00:00:21;;;;;;;3.80;1.70;;;;;;;-2.55;51.60;98717.41;5047908;28;20060;-70
2022/01/08 00:02:50;;;;;;;5.27;1.60;;;;;;;-2.68;51.62;98752.28;5039467;28;20133;-70
2022/01/08 00:05:17;;;;;;;4.77;1.60;;;;;;;-2.55;51.68;98757.56;5061867;28;20059;-70
2022/01/08 00:07:44;;;;;;;5.23;1.70;;;;;;;-2.52;51.06;98749.09;5048986;28;20514;-71
2022/01/08 00:10:11;;;;;;;6.23;2.00;;;;;;;-2.58;50.96;98768.72;5046844;28;20072;-67
2022/01/08 00:12:37;;;;;;;4.10;1.50;;;;;;;-2.52;51.11;98772.41;5050442;28;20053;-69
2022/01/08 00:15:06;;;;;;;4.70;1.87;;;;;;;-2.43;50.73;98765.72;5031872;28;21120;-69
2022/01/08 00:17:32;;;;;;;5.07;1.80;;;;;;;-2.28;50.59;98754.75;5043863;28;20045;-69
2022/01/08 00:19:59;;;;;;;4.90;1.40;;;;;;;-2.18;50.38;98765.81;5049066;28;20498;-69
2022/01/08 00:22:26;;;;;;;4.75;1.65;;;;;;;-2.28;50.30;98776.97;5051320;28;20056;-68
2022/01/08 00:24:52;;;;;;;5.53;1.80;;;;;;;-2.53;50.21;98770.75;5050353;28;20564;-69
2022/01/08 00:27:19;;;;;;;8.80;1.87;;;;;;;-2.45;50.77;98768.66;5052959;28;20052;-69
2022/01/08 00:29:47;;;;;;;5.55;1.88;;;;;;;-2.52;51.73;98769.72;5053463;28;20311;-69
2022/01/08 00:32:14;;;;;;;6.00;2.00;;;;;;;-2.56;51.16;98761.28;5049946;28;20049;-68
2022/01/08 00:34:40;;;;;;;5.28;1.73;;;;;;;-2.59;50.57;98767.88;5049007;28;20044;-70
2022/01/08 00:37:08;;;;;;;6.90;1.80;;;;;;;-2.67;51.01;98744.06;5061405;28;20560;-68
2022/01/08 00:39:35;;;;;;;3.65;1.40;;;;;;;-2.60;50.95;98765.44;5051576;28;20056;-68
2022/01/08 00:42:01;;;;;;;4.83;1.80;;;;;;;-2.43;50.61;98777.28;5047727;28;20073;-69
2022/01/08 00:44:28;;;;;;;4.13;1.57;;;;;;;-2.38;50.08;98787.34;5033087;28;20669;-68
2022/01/08 00:46:54;;;;;;;3.60;1.43;;;;;;;-2.63;49.90;98782.72;5032737;28;20489;-70
2022/01/08 00:49:20;;;;;;;5.70;1.43;;;;;;;-2.61;49.68;98798.59;5035338;28;20136;-68
2022/01/08 00:51:46;;;;;;;4.93;1.63;;;;;;;-2.64;49.88;98807.06;5031032;28;20077;-67
2022/01/08 00:54:17;;;;;;;4.60;1.57;;;;;;;-2.45;49.58;98813.31;5041332;28;20049;-68
2022/01/08 00:56:43;;;;;;;3.30;1.60;;;;;;;-2.60;49.72;98805.59;5032403;28;20560;-72
2022/01/08 00:59:09;;;;;;;3.60;1.33;;;;;;;-2.55;49.03;98816.47;5036016;28;20045;-73
2022/01/08 01:01:35;;;;;;;3.57;1.33;;;;;;;-2.57;49.08;98814.03;5048697;28;20531;-71
2022/01/08 01:04:02;;;;;;;4.30;1.50;;;;;;;-2.46;48.63;98822.41;5038987;28;20172;-72
2022/01/08 01:06:28;;;;;;;3.40;1.30;;;;;;;-2.49;48.92;98804.91;5050528;28;20048;-72
2022/01/08 01:08:54;;;;;;;5.47;1.63;;;;;;;-2.36;48.50;98835.31;5035889;28;20511;-73
2022/01/08 01:11:22;;;;;;;4.93;1.50;;;;;;;-2.43;48.55;98838.03;5031504;28;20053;-73
2022/01/08 01:13:51;;;;;;;2.63;1.17;;;;;;;-2.52;48.53;98842.00;5042790;28;20041;-73
2022/01/08 01:16:18;;;;;;;4.07;1.33;;;;;;;-2.48;48.76;98832.50;5038036;28;20460;-73
2022/01/08 01:18:45;;;;;;;;;;;;;;;-2.50;48.50;98843.41;5037665;28;20587;-73
2022/01/08 01:21:10;;;;;;;4.90;1.30;;;;;;;-2.66;48.87;98857.28;5053015;28;20026;-73
2022/01/08 01:23:41;;;;;;;5.47;1.40;;;;;;;-2.68;48.23;98862.00;5049563;28;20047;-72
2022/01/08 01:26:12;;;;;;;4.63;1.63;;;;;;;-2.80;48.25;98864.53;5036810;28;20282;-72
2022/01/08 01:42:28;;;;;;;3.13;1.20;;;;;;;-2.71;48.05;98877.47;5050069;28;20075;-71
2022/01/08 01:47:42;;;;;;;4.73;1.57;;;;;;;-2.58;47.87;98886.50;5040216;28;20486;-71
2022/01/08 01:50:10;;;;;;;3.43;1.40;;;;;;;-2.56;47.69;98905.84;5014723;28;20547;-73
2022/01/08 01:52:37;;;;;;;;;;;;;;;-2.57;47.44;98907.72;5030518;28;20055;-70
2022/01/08 01:55:04;;;;;;;3.65;1.30;;;;;;;-2.68;47.68;98902.16;5043404;28;20039;-71
2022/01/08 01:57:31;;;;;;;3.20;1.40;;;;;;;-2.53;47.45;98918.81;5029332;28;20049;-71
2022/01/08 01:59:59;;;;;;;3.03;1.10;;;;;;;-2.59;47.56;98922.31;5054155;28;20057;-72
2022/01/08 02:02:28;;;;;;;4.18;1.40;;;;;;;-2.61;47.49;98916.38;5038342;28;20747;-72
2022/01/08 02:04:54;;;;;;;3.83;1.40;;;;;;;-2.54;47.99;98917.16;5037184;28;20382;-72
2022/01/08 02:07:23;;;;;;;3.03;1.17;;;;;;;-2.56;47.67;98940.66;5048008;28;20044;-72
2022/01/08 02:09:54;;;;;;;3.23;1.20;;;;;;;-2.72;47.82;98939.25;5037304;28;20469;-73
2022/01/08 02:12:22;;;;;;;4.33;1.20;;;;;;;-2.63;47.98;98942.53;5042208;28;20223;-72
2022/01/08 02:14:49;;;;;;;4.65;1.50;;;;;;;-2.72;48.24;98952.63;5049455;28;20413;-73
2022/01/08 02:17:17;;;;;;;5.07;1.30;;;;;;;-2.67;48.29;98952.81;5042140;28;20051;-73
2022/01/08 02:19:43;;;;;;;;;;;;;;;-2.57;47.97;98963.94;5034173;28;20077;-73
2022/01/08 02:22:15;;;;;;;3.28;1.50;;;;;;;-2.61;48.05;98970.72;5018126;28;20373;-74
2022/01/08 02:24:42;;;;;;;5.60;1.40;;;;;;;-2.66;48.28;98958.97;5031916;28;20050;-73
2022/01/08 02:27:10;;;;;;;3.38;1.30;;;;;;;-2.59;48.51;98982.03;5031429;28;20049;-73
2022/01/08 02:29:38;;;;;;;3.75;1.40;;;;;;;-2.54;48.21;98984.09;5051741;28;20053;-72
2022/01/08 02:32:08;;;;;;;3.78;1.65;;;;;;;-2.64;48.59;98984.53;5039451;28;20543;-73
2022/01/08 02:34:36;;;;;;;4.73;1.30;;;;;;;-2.68;48.55;98971.75;5038320;28;20076;-73
2022/01/08 02:37:03;;;;;;;2.53;1.20;;;;;;;-2.62;48.68;98970.94;5049241;28;20051;-73
2022/01/08 02:39:38;;;;;;;3.75;1.40;;;;;;;-2.60;48.80;98987.59;5044127;28;20049;-74
2022/01/08 02:42:05;;;;;;;3.97;1.33;;;;;;;-2.65;48.49;98971.34;5017998;28;20507;-74
2022/01/08 02:44:35;;;;;;;5.00;1.50;;;;;;;-2.73;48.65;98973.22;5052288;28;20044;-74
2022/01/08 02:47:02;;;;;;;4.53;1.40;;;;;;;-2.67;48.64;98986.78;5045351;28;20112;-73
2022/01/08 02:49:31;;;;;;;2.72;1.27;;;;;;;-2.67;48.82;99001.00;5045265;28;20049;-72
2022/01/08 02:51:58;;;;;;;3.43;1.33;;;;;;;-2.76;48.97;99002.22;5040646;28;20299;-73
2022/01/08 02:54:23;;;;;;;5.20;1.50;;;;;;;-2.74;49.07;99009.03;5041820;28;20495;-72
2022/01/08 02:56:51;;;;;;;3.73;1.50;;;;;;;-2.72;49.11;99020.34;5045500;28;20033;-72
2022/01/08 02:59:18;;;;;;;5.47;1.60;;;;;;;-2.62;49.28;99033.31;5036103;28;20045;-72
2022/01/08 03:01:44;;;;;;;4.57;1.40;;;;;;;-2.60;49.20;99019.72;5046549;28;20056;-73
2022/01/08 03:04:11;;;;;;;3.97;1.60;;;;;;;-2.59;48.64;99034.75;5041935;28;20514;-72
2022/01/08 03:06:38;;;;;;;3.40;1.20;;;;;;;-2.57;48.83;99049.59;5045908;28;20303;-72
2022/01/08 03:09:08;;;;;;;4.80;1.60;;;;;;;-2.56;49.13;99053.09;5046256;28;20056;-71
2022/01/08 03:11:34;;;;;;;5.73;1.30;;;;;;;-2.53;49.04;99049.97;5045722;28;20068;-72
2022/01/08 03:14:02;;;;;;;4.80;1.80;;;;;;;-2.52;49.18;99048.94;5049063;28;20032;-71
2022/01/08 03:16:28;;;;;;;7.43;2.20;;;;;;;-2.40;48.98;99061.72;5052887;28;20052;-73
2022/01/08 03:18:55;;;;;;;8.18;2.10;;;;;;;-2.50;48.94;99060.28;5029953;28;20037;-72
2022/01/08 03:21:24;;;;;;;6.73;2.03;;;;;;;-2.52;49.23;99061.53;5067249;28;20549;-72
2022/01/08 03:23:59;;;;;;;4.87;1.50;;;;;;;-2.48;49.35;99068.09;5045343;28;20072;-71
2022/01/08 03:26:27;;;;;;;3.23;1.40;;;;;;;-2.61;49.60;99080.47;5044184;28;20057;-71
2022/01/08 03:28:57;;;;;;;4.35;1.50;;;;;;;-2.60;49.82;99081.31;5053937;28;20529;-71
2022/01/08 03:31:25;;;;;;;5.07;1.70;;;;;;;-2.52;49.70;99080.28;5055631;28;20063;-72
2022/01/08 03:33:52;;;;;;;5.73;1.63;;;;;;;-2.55;49.88;99084.16;5045686;28;20437;-71
2022/01/08 03:36:21;;;;;;;5.30;1.55;;;;;;;-2.52;49.86;99074.91;5050678;28;20049;-71
2022/01/08 03:38:47;;;;;;;3.63;1.30;;;;;;;-2.44;49.76;99078.19;5034772;28;20057;-72
2022/01/08 03:41:13;;;;;;;4.77;1.70;;;;;;;-2.40;49.72;99081.28;5051994;28;20110;-72
2022/01/08 03:43:39;;;;;;;4.23;1.47;;;;;;;-2.40;50.07;99083.97;5048766;28;20037;-72
2022/01/08 03:46:05;;;;;;;7.97;1.60;;;;;;;-2.40;49.92;99077.78;5026291;28;20037;-72
2022/01/08 03:48:58;;;;;;;4.93;1.67;;;;;;;-2.36;49.98;99087.03;5047814;28;20073;-72
2022/01/08 03:51:24;;;;;;;5.73;1.87;;;;;;;-2.41;50.04;99098.41;5036437;28;20524;-71
2022/01/08 03:53:50;;;;;;;4.67;1.67;;;;;;;-2.45;50.25;99094.47;5038316;28;20050;-72
2022/01/08 03:56:17;;;;;;;3.83;1.50;;;;;;;-2.50;50.43;99092.41;5031471;28;20046;-71
2022/01/08 03:58:46;;;;;;;7.30;1.93;;;;;;;-2.44;50.53;99107.66;5044617;28;20043;-72
2022/01/08 04:01:12;;;;;;;4.97;1.80;;;;;;;-2.48;50.58;99103.75;5040077;28;20283;-72
2022/01/08 04:03:40;;;;;;;7.10;1.80;;;;;;;-2.42;50.57;99100.25;5043686;28;20041;-71
2022/01/08 04:06:09;;;;;;;4.75;1.70;;;;;;;-2.37;50.77;99104.13;5067849;28;20060;-71
2022/01/08 04:08:35;;;;;;;5.40;1.90;;;;;;;-2.40;50.92;99116.09;5039760;28;20464;-71
2022/01/08 04:11:02;;;;;;;4.60;1.60;;;;;;;-2.42;51.17;99112.78;5046555;28;20051;-71
2022/01/08 04:13:32;;;;;;;5.37;1.70;;;;;;;-2.43;51.27;99122.69;5031915;28;20112;-71
2022/01/08 04:16:07;;;;;;;6.07;1.60;;;;;;;-2.44;51.51;99118.38;5035183;28;20057;-71
2022/01/08 04:18:33;;;;;;;3.87;1.60;;;;;;;-2.43;51.61;99127.22;5049965;28;20136;-71
2022/01/08 04:21:44;;;;;;;4.23;1.60;;;;;;;-2.43;51.57;99128.03;5028284;28;20139;-70
2022/01/08 04:24:03;;;;;;;4.88;1.55;;;;;;;-2.33;51.48;99113.44;5042582;28;20413;-72
2022/01/08 04:26:29;;;;;;;5.27;1.77;;;;;;;-2.38;51.79;99123.91;5047183;28;20413;-71
2022/01/08 04:28:55;;;;;;;4.30;1.60;;;;;;;-2.36;51.69;99124.53;5045224;28;20509;-67
2022/01/08 04:31:23;;;;;;;4.60;1.50;;;;;;;-2.32;51.85;99121.25;5037889;28;20068;-68
2022/01/08 04:33:50;;;;;;;2.50;1.27;;;;;;;-2.44;52.03;99129.09;5037300;28;20409;-67
2022/01/08 04:36:18;;;;;;;4.05;1.50;;;;;;;-2.49;52.29;99128.03;5046156;28;20045;-68
2022/01/08 04:38:43;;;;;;;;;;;;;;;-2.51;52.20;99138.13;5042849;28;20091;-67
2022/01/08 04:41:10;;;;;;;5.40;1.50;;;;;;;-2.55;52.16;99132.38;5048449;28;19987;-68
2022/01/08 04:43:38;;;;;;;3.50;1.50;;;;;;;-2.50;52.06;99132.56;5051393;28;20049;-66
2022/01/08 04:46:04;;;;;;;;;;;;;;;-2.36;51.61;99138.75;5032824;28;20049;-67
2022/01/08 04:48:30;;;;;;;5.43;1.60;;;;;;;-2.32;51.38;99141.84;5038072;28;19964;-68
2022/01/08 04:50:57;;;;;;;3.07;1.30;;;;;;;-2.39;51.57;99144.53;5046779;28;20045;-67
2022/01/08 04:53:27;;;;;;;6.90;1.77;;;;;;;-2.42;51.50;99151.13;5049692;28;20486;-67
2022/01/08 04:55:53;;;;;;;6.53;1.83;;;;;;;-2.39;51.55;99160.59;5044690;28;20403;-67
2022/01/08 04:58:19;;;;;;;13.37;4.07;;;;;;;-2.40;51.43;99158.13;5041706;28;20056;-67
2022/01/08 05:00:46;;;;;;;22.20;7.23;;;;;;;-2.36;51.71;99167.38;5033712;28;20050;-66
2022/01/08 05:03:15;;;;;;;23.90;7.80;;;;;;;-2.28;51.50;99169.88;5046695;28;20037;-67
2022/01/08 05:05:41;;;;;;;23.63;7.67;;;;;;;-2.31;51.63;99175.63;5046469;28;20560;-67
2022/01/08 05:08:08;;;;;;;27.60;8.67;;;;;;;-2.30;51.61;99177.28;5036948;28;20053;-66
2022/01/08 05:10:35;;;;;;;31.07;9.53;;;;;;;-2.30;51.64;99182.66;5032192;28;20057;-67
2022/01/08 05:13:04;;;;;;;24.65;8.45;;;;;;;-2.32;51.94;99184.72;5036904;28;20073;-66
2022/01/08 05:15:30;;;;;;;21.97;7.90;;;;;;;-2.30;51.83;99190.69;5044739;28;20479;-66
2022/01/08 05:17:56;;;;;;;18.07;6.43;;;;;;;-2.25;51.82;99190.88;5047847;28;20188;-66
2022/01/08 05:20:24;;;;;;;13.80;5.43;;;;;;;-2.18;51.64;99196.25;5014082;28;20045;-67
2022/01/08 05:22:52;;;;;;;13.95;4.57;;;;;;;-2.18;51.75;99194.41;5031627;28;20049;-66
2022/01/08 05:25:20;;;;;;;11.60;3.63;;;;;;;-2.17;51.73;99208.59;5042727;28;20048;-66
2022/01/08 05:27:49;;;;;;;7.90;2.50;;;;;;;-2.20;51.79;99204.47;5040799;28;20484;-67
2022/01/08 05:30:17;;;;;;;9.17;2.30;;;;;;;-2.18;51.80;99212.31;5046470;28;20053;-67
2022/01/08 05:32:43;;;;;;;;;;;;;;;-2.22;51.74;99211.88;5068170;28;20323;-67
2022/01/08 05:35:12;;;;;;;9.10;2.97;;;;;;;-2.25;51.54;99219.53;5042733;28;19929;-68
2022/01/08 05:37:39;;;;;;;9.20;2.80;;;;;;;-2.46;52.30;99214.16;5042910;28;20064;-67
2022/01/08 05:40:07;;;;;;;5.73;1.87;;;;;;;-2.49;52.67;99229.78;5035807;28;20041;-66
2022/01/08 05:42:33;;;;;;;10.10;2.43;;;;;;;-2.43;52.83;99234.31;5047629;28;20096;-66
2022/01/08 05:45:01;;;;;;;8.60;2.17;;;;;;;-2.41;52.89;99232.28;5044170;28;20050;-67
2022/01/08 05:47:33;;;;;;;7.47;2.00;;;;;;;-2.40;52.72;99244.66;5036024;28;20057;-67
2022/01/08 05:49:59;;;;;;;6.27;1.47;;;;;;;-2.39;52.94;99242.78;5045767;28;20053;-68
2022/01/08 05:52:26;;;;;;;4.93;1.47;;;;;;;-2.26;52.60;99247.31;5032616;28;20049;-67
2022/01/08 05:54:52;;;;;;;5.90;1.57;;;;;;;-2.25;52.60;99254.34;5049686;28;20490;-67
2022/01/08 05:57:19;;;;;;;7.40;1.90;;;;;;;-2.31;53.10;99262.16;5045125;28;20069;-67
2022/01/08 05:59:45;;;;;;;5.87;1.53;;;;;;;-2.31;53.11;99264.03;5062426;28;20477;-67
2022/01/08 06:02:16;;;;;;;3.70;1.60;;;;;;;-2.30;53.35;99265.69;5043911;28;20072;-67
2022/01/08 06:04:42;;;;;;;5.43;1.70;;;;;;;-2.31;53.35;99267.50;5066080;28;20460;-67
2022/01/08 06:07:08;;;;;;;5.07;1.97;;;;;;;-2.31;53.34;99262.16;5036870;28;20045;-67
2022/01/08 06:09:35;;;;;;;7.57;1.93;;;;;;;-2.34;53.58;99256.38;5042260;28;20068;-67
2022/01/08 06:12:05;;;;;;;11.03;2.87;;;;;;;-2.33;53.63;99266.91;5048372;28;20399;-67
2022/01/08 06:14:31;;;;;;;11.60;3.30;;;;;;;-2.34;53.59;99278.63;5064445;28;20044;-66
2022/01/08 06:16:57;;;;;;;14.03;3.80;;;;;;;-2.29;53.47;99289.56;5049809;28;20045;-69
2022/01/08 06:19:25;;;;;;;12.70;3.93;;;;;;;-2.32;53.38;99287.28;5039947;28;20516;-68
2022/01/08 06:21:51;;;;;;;18.20;4.85;;;;;;;-2.24;53.39;99301.53;5033481;28;20090;-68
2022/01/08 06:24:17;;;;;;;13.33;4.07;;;;;;;-2.18;53.29;99314.09;5047124;28;20048;-67
2022/01/08 06:26:43;;;;;;;11.00;3.47;;;;;;;-2.15;53.06;99311.00;5046798;28;20116;-67
2022/01/08 06:29:10;;;;;;;8.07;2.60;;;;;;;-2.17;53.39;99310.41;5022726;28;20068;-67
2022/01/08 06:31:36;;;;;;;9.33;2.80;;;;;;;-2.16;53.50;99314.72;5046849;28;20067;-68
2022/01/08 06:34:03;;;;;;;7.00;2.43;;;;;;;-2.12;53.50;99317.84;5053038;28;20503;-67
2022/01/08 06:36:31;;;;;;;9.23;3.00;;;;;;;-2.14;53.67;99326.06;5033703;28;20049;-67
2022/01/08 06:38:59;;;;;;;10.33;3.20;;;;;;;-2.13;53.70;99322.34;5038830;28;20049;-67
2022/01/08 06:41:25;;;;;;;8.93;2.93;;;;;;;-2.17;53.93;99330.00;5063660;28;20136;-67
2022/01/08 06:43:51;;;;;;;10.07;2.90;;;;;;;-2.22;54.26;99320.91;5038032;28;20041;-68
2022/01/08 06:46:18;;;;;;;8.37;2.63;;;;;;;-2.21;54.53;99333.28;5051578;28;20045;-68
2022/01/08 06:48:45;;;;;;;8.73;2.67;;;;;;;-2.16;54.63;99337.00;5034375;28;20050;-68
2022/01/08 06:51:11;;;;;;;7.18;2.15;;;;;;;-2.16;54.63;99346.88;5049240;28;20072;-69
2022/01/08 06:53:39;;;;;;;9.17;2.40;;;;;;;-2.11;54.56;99340.91;5047186;28;20472;-68
2022/01/08 06:56:05;;;;;;;6.40;2.22;;;;;;;-2.18;54.30;99347.09;5043566;28;20041;-68
2022/01/08 06:58:32;;;;;;;10.13;2.63;;;;;;;-2.04;54.20;99352.47;5037617;28;20614;-67
2022/01/08 07:00:58;;;;;;;6.60;2.10;;;;;;;-2.01;53.94;99352.06;5052302;28;20111;-67
2022/01/08 07:03:24;;;;;;;9.60;2.57;;;;;;;-2.02;53.79;99350.44;5038484;28;20304;-67
2022/01/08 07:05:50;;;;;;;8.40;2.10;;;;;;;-2.04;53.77;99342.59;5039134;28;20041;-67
2022/01/08 07:08:17;;;;;;;7.67;2.67;;;;;;;-1.90;53.50;99343.41;5043911;28;20042;-67
2022/01/08 07:10:45;;;;;;;9.50;2.70;;;;;;;-1.95;53.08;99353.09;5050082;28;20087;-67
2022/01/08 07:13:11;;;;;;;5.77;2.00;;;;;;;-2.05;52.98;99356.16;5048966;28;20049;-67
2022/01/08 07:15:38;;;;;;;4.50;1.87;;;;;;;-2.02;52.84;99358.47;5044888;28;20045;-69
2022/01/08 07:18:04;;;;;;;7.07;2.10;;;;;;;-2.02;52.32;99366.50;5043382;28;20087;-68
2022/01/08 07:20:30;;;;;;;7.80;2.67;;;;;;;-2.10;52.32;99359.47;5052986;28;20099;-67
2022/01/08 07:22:56;;;;;;;8.60;2.20;;;;;;;-1.98;51.83;99370.41;5041443;28;20528;-68
2022/01/08 07:25:22;;;;;;;5.87;1.90;;;;;;;-2.01;51.64;99370.84;5047071;28;20045;-68
2022/01/08 07:27:50;;;;;;;6.33;1.80;;;;;;;-1.97;51.65;99377.44;5039756;28;20045;-68
2022/01/08 07:30:16;;;;;;;5.57;1.90;;;;;;;-1.91;51.28;99379.28;5043880;28;20048;-67
2022/01/08 07:32:43;;;;;;;8.13;2.90;;;;;;;-1.87;51.42;99377.88;5039920;28;20041;-66
2022/01/08 07:35:10;;;;;;;15.15;4.22;;;;;;;-1.83;51.17;99374.78;5045852;28;20049;-66
2022/01/08 07:37:37;;;;;;;11.70;4.90;;;;;;;-1.69;50.94;99380.97;5049249;28;20560;-66
2022/01/08 07:40:04;;;;;;;12.63;5.60;;;;;;;-1.60;50.50;99385.13;5039683;28;20053;-64
2022/01/08 07:42:30;;;;;;;12.00;4.57;;;;;;;-1.66;50.61;99383.25;5051212;28;20037;-66
2022/01/08 07:44:58;;;;;;;9.87;4.03;;;;;;;-1.68;50.64;99377.25;5047052;28;20095;-67
2022/01/08 07:47:24;;;;;;;8.15;3.05;;;;;;;-1.61;50.62;99388.84;5031754;28;20061;-67
2022/01/08 07:49:50;;;;;;;9.00;2.67;;;;;;;-1.61;50.73;99391.50;5036082;28;20129;-67
2022/01/08 07:52:18;;;;;;;9.77;2.95;;;;;;;-1.61;50.95;99404.94;5041352;28;20078;-67
2022/01/08 07:54:44;;;;;;;8.23;2.93;;;;;;;-1.60;50.77;99401.22;5046218;28;20053;-66
2022/01/08 07:57:10;;;;;;;9.93;2.80;;;;;;;-1.60;50.67;99398.53;5044991;28;20140;-66
2022/01/08 07:59:37;;;;;;;7.93;2.80;;;;;;;-1.52;50.52;99408.22;5048964;28;20037;-66
2022/01/08 08:02:04;;;;;;;13.50;3.50;;;;;;;-1.44;50.56;99408.00;5037357;28;20041;-66
2022/01/08 08:04:30;;;;;;;11.15;4.45;;;;;;;-1.42;50.50;99403.28;5042994;28;20052;-66
2022/01/08 08:06:56;;;;;;;14.60;5.80;;;;;;;-1.37;50.56;99416.91;5044512;28;20037;-65
2022/01/08 08:09:22;;;;;;;12.70;4.60;;;;;;;-1.26;50.89;99401.19;5028606;28;20045;-66
2022/01/08 08:11:48;;;;;;;10.50;3.90;;;;;;;-1.07;50.12;99418.34;5034820;28;20053;-66
2022/01/08 08:14:14;;;;;;;8.87;3.00;;;;;;;-0.92;49.95;99431.56;5047097;28;20049;-66
2022/01/08 08:16:40;;;;;;;7.07;2.33;;;;;;;-0.74;49.46;99430.88;5043319;28;21237;-67
2022/01/08 08:19:08;;;;;;;18.20;3.67;;;;;;;-0.54;49.50;99430.03;5039875;28;20094;-66
2022/01/08 08:21:34;;;;;;;10.65;3.70;;;;;;;-0.48;49.25;99421.94;5047806;28;20045;-67
2022/01/08 08:24:03;;;;;;;11.82;4.30;;;;;;;-0.24;49.32;99438.41;5043966;28;20509;-66
2022/01/08 08:26:29;;;;;;;9.98;3.80;;;;;;;-0.02;48.84;99424.66;5051051;28;20059;-67
2022/01/08 08:28:55;;;;;;;10.57;3.40;;;;;;;-0.01;48.95;99427.13;5039220;28;20046;-67
2022/01/08 08:31:21;;;;;;;9.43;3.67;;;;;;;-0.05;48.69;99434.00;5041306;28;20048;-70
2022/01/08 08:33:47;;;;;;;12.45;4.00;;;;;;;-0.10;48.93;99425.72;5033617;28;20379;-68
2022/01/08 08:36:15;;;;;;;11.55;3.95;;;;;;;-0.11;48.99;99432.13;5044551;28;20076;-68
2022/01/08 08:38:41;;;;;;;14.85;4.28;;;;;;;-0.23;49.15;99439.25;5041410;28;20405;-67
2022/01/08 08:41:07;;;;;;;16.77;4.40;;;;;;;-0.28;49.20;99442.56;5032653;28;20050;-69
2022/01/08 08:43:33;;;;;;;11.23;3.78;;;;;;;-0.45;49.44;99443.03;5041160;28;20064;-68
2022/01/08 08:46:15;;;;;;;9.77;3.30;;;;;;;-0.60;49.25;99434.38;5027735;28;20053;-68
2022/01/08 08:48:43;;;;;;;12.88;3.80;;;;;;;-0.43;49.10;99434.75;5045906;28;20041;-69
2022/01/08 08:51:09;;;;;;;10.20;3.60;;;;;;;-0.40;48.77;99438.88;5038711;28;20502;-70
2022/01/08 08:53:36;;;;;;;12.60;3.67;;;;;;;-0.38;48.80;99437.63;5035400;28;20049;-70
2022/01/08 08:56:04;;;;;;;10.85;3.45;;;;;;;-0.41;48.73;99439.91;5006426;28;20396;-70
2022/01/08 08:58:30;;;;;;;;;;;;;;;-0.18;48.46;99448.28;5020016;28;20045;-68
2022/01/08 09:00:56;;;;;;;7.82;2.80;;;;;;;-0.02;48.06;99444.31;5030028;28;19983;-68
2022/01/08 09:03:22;;;;;;;11.32;3.17;;;;;;;0.06;48.02;99445.94;5025834;28;20491;-69
2022/01/08 09:05:49;;;;;;;10.75;2.80;;;;;;;0.25;47.70;99452.25;5044693;28;20040;-69
2022/01/08 09:08:15;;;;;;;8.70;2.90;;;;;;;0.27;47.74;99450.16;5014231;28;20049;-69
2022/01/08 09:10:43;;;;;;;8.77;2.85;;;;;;;0.26;47.62;99475.41;4994773;28;20073;-68
2022/01/08 09:13:09;;;;;;;11.10;3.47;;;;;;;0.23;47.71;99473.13;5030235;28;20052;-69
2022/01/08 09:15:40;;;;;;;8.57;2.50;;;;;;;0.21;47.81;99472.53;5030187;28;20431;-68
2022/01/08 09:18:08;;;;;;;9.70;3.28;;;;;;;0.02;47.67;99463.53;5025019;28;20045;-67
2022/01/08 09:20:35;;;;;;;11.98;3.40;;;;;;;-0.14;48.01;99478.25;5024619;28;20045;-67
2022/01/08 09:23:01;;;;;;;9.85;3.13;;;;;;;-0.30;48.44;99484.94;5029644;28;20044;-68
2022/01/08 09:25:27;;;;;;;10.60;3.40;;;;;;;-0.41;48.53;99474.84;5012836;28;20049;-70
2022/01/08 09:27:54;;;;;;;12.50;2.83;;;;;;;-0.43;48.80;99470.50;5029754;28;20041;-70
2022/01/08 09:30:21;;;;;;;11.32;3.13;;;;;;;-0.40;48.96;99473.81;5021805;28;20049;-69
2022/01/08 09:32:47;;;;;;;9.75;2.70;;;;;;;-0.41;49.12;99472.16;5028111;28;20049;-69
2022/01/08 09:35:15;;;;;;;12.00;3.28;;;;;;;-0.41;49.19;99472.16;5029218;28;20049;-69
2022/01/08 09:37:41;;;;;;;10.27;3.65;;;;;;;-0.48;49.24;99478.34;5008069;28;20046;-69
2022/01/08 09:40:10;;;;;;;10.70;3.10;;;;;;;-0.49;49.28;99481.25;5017351;28;20392;-68
2022/01/08 09:42:36;;;;;;;13.32;3.05;;;;;;;-0.53;49.63;99477.34;5012529;28;20073;-68
2022/01/08 09:45:05;;;;;;;7.78;2.38;;;;;;;-0.49;49.78;99474.00;5031020;28;20052;-69
2022/01/08 09:47:31;;;;;;;9.63;2.92;;;;;;;-0.45;49.70;99494.06;5027728;28;20461;-69
2022/01/08 09:49:57;;;;;;;10.45;2.83;;;;;;;-0.47;49.61;99492.63;5029539;28;20057;-69
2022/01/08 09:52:23;;;;;;;10.40;3.17;;;;;;;-0.66;49.90;99492.44;5025451;28;20053;-70
2022/01/08 09:54:50;;;;;;;11.38;2.30;;;;;;;-0.55;49.68;99503.56;5024784;28;20104;-69
2022/01/08 09:57:16;;;;;;;9.35;2.75;;;;;;;-0.58;49.65;99505.63;5016587;28;20069;-69
2022/01/08 09:59:42;;;;;;;7.45;2.30;;;;;;;-0.73;50.02;99507.72;5009444;28;20064;-69
2022/01/08 10:02:10;;;;;;;8.45;2.40;;;;;;;-0.68;50.09;99515.16;5023055;28;20051;-67
2022/01/08 10:04:38;;;;;;;7.30;2.60;;;;;;;-0.70;50.20;99527.97;5028757;28;20080;-69
2022/01/08 10:07:19;;;;;;;12.85;2.65;;;;;;;-0.75;50.34;99510.63;5018816;28;20049;-68
2022/01/08 10:10:06;;;;;;;8.10;2.40;;;;;;;-0.97;50.49;99522.59;5024229;28;20058;-69
2022/01/08 10:12:43;;;;;;;6.53;1.95;;;;;;;-0.89;50.51;99522.41;5024031;28;20100;-70
2022/01/08 10:17:57;;;;;;;6.22;1.90;;;;;;;-1.12;50.71;99506.69;5018205;28;20046;-68
2022/01/08 10:20:32;;;;;;;6.55;2.10;;;;;;;-1.06;50.86;99517.44;5025746;28;20731;-69
2022/01/08 10:23:10;;;;;;;6.70;1.87;;;;;;;-1.00;50.68;99524.66;5020561;28;20063;-68
2022/01/08 10:25:36;;;;;;;7.22;2.33;;;;;;;-1.10;51.01;99521.53;5013209;28;20049;-68
2022/01/08 10:28:03;;;;;;;7.67;2.20;;;;;;;-1.24;51.27;99515.34;5030359;28;20450;-68
2022/01/08 10:30:28;;;;;;;6.40;2.00;;;;;;;-1.00;50.67;99526.53;5028910;28;20049;-69
2022/01/08 10:33:14;;;;;;;9.18;2.55;;;;;;;-0.58;50.14;99532.50;5019593;28;20053;-68
2022/01/08 10:35:51;;;;;;;9.53;2.20;;;;;;;-0.69;50.51;99538.53;5023808;28;20449;-69
2022/01/08 10:38:18;;;;;;;9.73;2.78;;;;;;;-0.80;50.75;99545.31;5020183;28;20519;-69
2022/01/08 10:40:44;;;;;;;11.80;2.70;;;;;;;-0.96;51.08;99537.66;5030288;28;20049;-71
2022/01/08 10:43:24;;;;;;;7.05;2.40;;;;;;;-1.08;51.31;99535.63;5022711;28;20521;-70
2022/01/08 10:45:52;;;;;;;11.55;2.85;;;;;;;-1.08;50.93;99538.28;5017415;28;20050;-70
2022/01/08 10:48:27;;;;;;;;;;;;;;;-0.90;50.47;99552.97;5025892;28;20068;-69
2022/01/08 10:50:53;;;;;;;9.93;2.37;;;;;;;-1.12;50.71;99552.31;5024429;28;19971;-70
2022/01/08 10:53:19;;;;;;;8.73;2.47;;;;;;;-1.15;50.88;99548.19;5028335;28;20049;-72
2022/01/08 10:55:46;;;;;;;8.25;2.30;;;;;;;-1.34;51.38;99549.78;5018477;28;20050;-71
2022/01/08 10:58:12;;;;;;;7.07;2.10;;;;;;;-1.37;51.25;99545.66;5016529;28;20128;-76
2022/01/08 11:00:38;;;;;;;5.63;2.33;;;;;;;-1.43;51.44;99557.19;5022193;28;20045;-71
2022/01/08 11:03:04;;;;;;;7.73;2.30;;;;;;;-1.53;51.61;99546.03;5029580;28;20053;-71
2022/01/08 11:05:32;;;;;;;8.80;2.43;;;;;;;-1.32;51.49;99539.69;5032426;28;20045;-71
2022/01/08 11:08:13;;;;;;;9.00;2.60;;;;;;;-1.29;51.33;99548.16;5033770;28;20128;-69
2022/01/08 11:10:41;;;;;;;6.50;2.10;;;;;;;-1.42;51.85;99540.06;5031158;28;20198;-70
2022/01/08 11:13:13;;;;;;;6.33;2.20;;;;;;;-1.41;51.84;99551.63;5012714;28;20057;-71
2022/01/08 11:15:49;;;;;;;15.10;2.90;;;;;;;-1.35;51.82;99538.25;5031573;28;20053;-69
2022/01/08 11:18:19;;;;;;;8.18;2.47;;;;;;;-1.20;51.48;99542.59;5012366;28;20437;-72
2022/01/08 11:20:48;;;;;;;10.03;2.87;;;;;;;-1.27;51.49;99534.53;5032938;28;20053;-69
2022/01/08 11:23:22;;;;;;;8.00;2.70;;;;;;;-1.27;51.46;99534.53;5040584;28;20042;-70
2022/01/08 11:25:51;;;;;;;11.85;2.63;;;;;;;-1.17;51.24;99532.28;5032207;28;20038;-72
2022/01/08 11:28:18;;;;;;;8.63;3.00;;;;;;;-1.51;52.16;99542.09;5030826;28;20041;-70
2022/01/08 11:30:49;;;;;;;11.13;3.03;;;;;;;-1.66;52.49;99538.75;5031980;28;20447;-70
2022/01/08 11:33:21;;;;;;;10.70;2.70;;;;;;;-1.67;52.68;99558.56;5032884;28;20200;-70
2022/01/08 11:35:51;;;;;;;9.37;2.80;;;;;;;-1.75;52.83;99552.34;5017796;28;20054;-70
2022/01/08 11:38:20;;;;;;;8.20;2.90;;;;;;;-1.75;52.96;99559.53;5025892;28;20526;-70
2022/01/08 11:40:48;;;;;;;9.27;2.60;;;;;;;-1.61;52.73;99569.31;4995404;28;20046;-70
2022/01/08 11:43:15;;;;;;;;;;;;;;;-1.76;53.08;99582.88;5028521;28;20152;-69
2022/01/08 11:45:47;;;;;;;9.57;2.83;;;;;;;-1.83;53.28;99590.03;5011819;28;19925;-70
2022/01/08 11:48:14;;;;;;;8.33;2.73;;;;;;;-1.94;53.34;99588.75;5044543;28;20091;-71
2022/01/08 11:50:52;;;;;;;9.50;3.08;;;;;;;-2.16;54.05;99606.75;5039377;28;20041;-71
2022/01/08 11:53:20;;;;;;;9.35;3.25;;;;;;;-2.10;54.01;99583.69;4994836;28;20053;-70
2022/01/08 11:55:48;;;;;;;11.43;3.20;;;;;;;-2.08;53.99;99578.97;5007402;28;20516;-70